Time;durP1;ratioP1;P1;durP2;ratioP2;P2;SDS_P1;SDS_P2;PMS_P1;PMS_P2;Temp;Humidity;BMP_temperature;BMP_pressure;BME280_temperature;BME280_humidity;BME280_pressure;Samples;Min_cycle;Max_cycle;Signal;HPM_P1;HPM_P2
2023/02/24 00:01:50;;;;;;;;;;;;;;;6.99;76.35;100084.00;106248;1288;58945;-80
2023/02/24 00:04:38;;;;;;;;;;;;;;;7.00;76.42;100083.31;106123;1287;73178;-80
2023/02/24 00:07:28;;;;;;;;;;;;;;;7.00;76.39;100081.59;106187;1289;68600;-80
2023/02/24 00:10:18;;;;;;;;;;;;;;;7.00;76.46;100077.83;105777;1288;71540;-80
2023/02/24 00:13:04;;;;;;;;;;;;;;;7.00;76.46;100073.54;105297;1288;61240;-80
2023/02/24 00:15:58;;;;;;;;;;;;;;;7.00;76.55;100071.31;105244;1288;60789;-80
2023/02/24 00:18:45;;;;;;;;;;;;;;;7.00;76.50;100070.28;105067;1288;73228;-80
2023/02/24 00:21:31;;;;;;;;;;;;;;;6.98;76.57;100062.42;105205;1288;68341;-80
2023/02/24 00:24:17;;;;;;;;;;;;;;;6.96;76.56;100061.05;105165;1288;72303;-80
2023/02/24 00:27:06;;;;;;;;;;;;;;;6.95;76.71;100056.45;105174;1288;61606;-80
2023/02/24 00:29:53;;;;;;;;;;;;;;;6.94;76.72;100052.52;105183;1288;61135;-80
2023/02/24 00:32:39;;;;;;;;;;;;;;;6.94;76.78;100050.29;105290;1288;73160;-79
2023/02/24 00:35:25;;;;;;;;;;;;;;;6.94;76.72;100049.61;105294;1290;67433;-79
2023/02/24 00:38:12;;;;;;;;;;;;;;;6.92;76.79;100047.05;105211;1290;73092;-79
2023/02/24 00:40:59;;;;;;;;;;;;;;;6.91;76.76;100040.38;105095;1289;61132;-79
2023/02/24 00:43:45;;;;;;;;;;;;;;;6.91;76.83;100036.45;105278;1288;62900;-80
2023/02/24 00:46:38;;;;;;;;;;;;;;;6.91;76.85;100033.88;105089;1288;73182;-79
2023/02/24 00:49:24;;;;;;;;;;;;;;;6.90;76.82;100028.58;105019;1288;70059;-80
2023/02/24 00:52:12;;;;;;;;;;;;;;;6.89;76.83;100024.65;104954;1288;71792;-80
2023/02/24 00:54:58;;;;;;;;;;;;;;;6.89;76.89;100021.56;105021;1288;61257;-79
2023/02/24 00:57:44;;;;;;;;;;;;;;;6.88;76.96;100016.44;105037;1288;61223;-80
2023/02/24 01:00:34;;;;;;;;;;;;;;;6.88;76.92;100014.55;105066;1292;74970;-80
2023/02/24 01:03:21;;;;;;;;;;;;;;;6.87;76.89;100013.36;104932;1290;67305;-80
2023/02/24 01:06:07;;;;;;;;;;;;;;;6.87;76.99;100013.52;104951;1288;71464;-80
2023/02/24 01:08:53;;;;;;;;;;;;;;;6.86;77.01;100016.45;104997;1288;61220;-80
2023/02/24 01:14:46;;;;;;;;;;;;;;;6.84;77.07;100007.23;105042;1288;73829;-80
2023/02/24 01:17:34;;;;;;;;;;;;;;;6.83;77.04;99998.83;105132;1288;68940;-79
2023/02/24 01:20:20;;;;;;;;;;;;;;;6.82;77.09;99995.95;104920;1288;72426;-80
2023/02/24 01:23:07;;;;;;;;;;;;;;;6.81;77.18;99992.86;104925;1288;60096;-80
2023/02/24 01:25:57;;;;;;;;;;;;;;;6.81;77.21;99991.66;105059;1288;61147;-80
2023/02/24 01:28:45;;;;;;;;;;;;;;;6.80;77.12;99986.70;105009;1288;73273;-80
2023/02/24 01:31:31;;;;;;;;;;;;;;;6.79;77.14;99981.58;105042;1288;68040;-80
2023/02/24 01:34:18;;;;;;;;;;;;;;;6.78;77.16;99973.70;104921;1288;72288;-79
2023/02/24 01:37:04;;;;;;;;;;;;;;;6.78;77.10;99979.20;104820;1288;60835;-79
2023/02/24 01:39:51;;;;;;;;;;;;;;;6.77;77.18;99976.64;105040;1288;62874;-80
2023/02/24 01:42:40;;;;;;;;;;;;;;;6.75;77.16;99973.77;104898;1288;74466;-80
2023/02/24 01:45:28;;;;;;;;;;;;;;;6.73;77.15;99978.59;104921;1288;67470;-79
2023/02/24 01:48:16;;;;;;;;;;;;;;;6.72;77.15;99976.04;104874;1288;74022;-79
2023/02/24 01:51:02;;;;;;;;;;;;;;;6.70;77.23;99972.29;104865;1288;61211;-79
2023/02/24 01:53:48;;;;;;;;;;;;;;;6.68;77.21;99969.04;104977;1288;61080;-80
2023/02/24 01:56:34;;;;;;;;;;;;;;;6.67;77.22;99967.02;105053;1289;73152;-79
2023/02/24 01:59:22;;;;;;;;;;;;;;;6.66;77.30;99962.74;105049;1288;67602;-79
2023/02/24 02:02:09;;;;;;;;;;;;;;;6.64;77.25;99959.15;104895;1288;71146;-79
2023/02/24 02:04:57;;;;;;;;;;;;;;;6.62;77.22;99959.86;104968;1288;61503;-79
2023/02/24 02:07:44;;;;;;;;;;;;;;;6.60;77.23;99959.20;104935;1288;59603;-79
2023/02/24 02:10:30;;;;;;;;;;;;;;;6.59;77.19;99960.23;104918;1287;73185;-80
2023/02/24 02:13:20;;;;;;;;;;;;;;;6.57;77.24;99961.62;104935;1288;67004;-79
2023/02/24 02:16:33;;;;;;;;;;;;;;;6.55;77.30;99957.71;106104;1288;71660;-80
2023/02/24 02:19:42;;;;;;;;;;;;;;;6.53;77.29;99957.39;106263;1288;59249;-80
2023/02/24 02:22:48;;;;;;;;;;;;;;;6.52;77.21;99956.37;106252;1290;59992;-80
2023/02/24 02:25:37;;;;;;;;;;;;;;;6.51;77.27;99952.96;106130;1288;74380;-80
2023/02/24 02:28:30;;;;;;;;;;;;;;;6.50;77.28;99952.45;105446;1293;67379;-80
2023/02/24 02:31:28;;;;;;;;;;;;;;;6.49;77.35;99950.75;105089;1288;73986;-80
2023/02/24 02:34:37;;;;;;;;;;;;;;;6.48;77.32;99949.91;105059;1288;59432;-79
2023/02/24 02:37:36;;;;;;;;;;;;;;;6.46;77.25;99943.77;105097;1292;61181;-80
2023/02/24 02:40:36;;;;;;;;;;;;;;;6.44;77.35;99940.17;105059;1290;73281;-79
2023/02/24 02:43:37;;;;;;;;;;;;;;;6.42;77.37;99940.71;105126;1288;67281;-79
2023/02/24 02:46:34;;;;;;;;;;;;;;;6.40;77.42;99935.42;105111;1288;71442;-79
2023/02/24 02:49:23;;;;;;;;;;;;;;;6.39;77.43;99928.42;104939;1288;62922;-79
2023/02/24 02:52:14;;;;;;;;;;;;;;;6.38;77.43;99931.00;104649;1293;393512;-79
2023/02/24 02:55:07;;;;;;;;;;;;;;;6.36;77.46;99927.94;104943;1287;78274;-80
2023/02/24 02:57:54;;;;;;;;;;;;;;;6.35;77.46;99928.11;105050;1288;66163;-80
2023/02/24 03:00:48;;;;;;;;;;;;;;;6.34;77.51;99930.01;105077;1288;72424;-80
2023/02/24 03:03:37;;;;;;;;;;;;;;;6.33;77.59;99926.26;104961;1288;60007;-80
2023/02/24 03:06:26;;;;;;;;;;;;;;;6.33;77.58;99920.44;104936;1292;63411;-79
2023/02/24 03:09:28;;;;;;;;;;;;;;;6.32;77.56;99919.77;105081;1288;73387;-79
2023/02/24 03:12:16;;;;;;;;;;;;;;;6.30;77.63;99917.71;104964;1288;67342;-80
2023/02/24 03:15:06;;;;;;;;;;;;;;;6.29;77.61;99911.23;104915;1288;74067;-79
2023/02/24 03:17:57;;;;;;;;;;;;;;;6.27;77.59;99911.77;105006;1290;61157;-80
2023/02/24 03:20:46;;;;;;;;;;;;;;;6.25;77.65;99909.56;104957;1288;61321;-79
2023/02/24 03:23:38;;;;;;;;;;;;;;;6.24;77.66;99905.11;105047;1288;74047;-79
2023/02/24 03:26:27;;;;;;;;;;;;;;;6.23;77.70;99901.89;104920;1288;68901;-80
2023/02/24 03:29:29;;;;;;;;;;;;;;;6.23;77.76;99898.66;105091;1288;72567;-80
2023/02/24 03:32:32;;;;;;;;;;;;;;;6.22;77.73;99893.36;105098;1292;61211;-79
2023/02/24 03:35:20;;;;;;;;;;;;;;;6.22;77.80;99892.16;105068;1288;59852;-79
2023/02/24 03:38:09;;;;;;;;;;;;;;;6.21;77.73;99888.40;105095;1292;74850;-79
2023/02/24 03:40:55;;;;;;;;;;;;;;;6.21;77.83;99882.94;105151;1289;67476;-79
2023/02/24 03:43:43;;;;;;;;;;;;;;;6.20;77.80;99883.80;104945;1288;72060;-79
2023/02/24 03:46:30;;;;;;;;;;;;;;;6.20;77.80;99882.60;104937;1290;59469;-79
2023/02/24 03:49:16;;;;;;;;;;;;;;;6.19;77.83;99876.96;105073;1288;62721;-79
2023/02/24 03:52:12;;;;;;;;;;;;;;;6.19;77.88;99875.08;105046;1288;73632;-79
2023/02/24 03:55:32;;;;;;;;;;;;;;;6.18;77.90;99871.33;105106;1290;68632;-79
2023/02/24 03:58:40;;;;;;;;;;;;;;;6.17;77.91;99871.34;105249;1296;203169;-79
2023/02/24 04:01:40;;;;;;;;;;;;;;;6.17;77.99;99865.34;104374;1296;61093;-79
2023/02/24 04:04:48;;;;;;;;;;;;;;;6.18;77.96;99861.74;104344;1296;61229;-79
2023/02/24 04:07:38;;;;;;;;;;;;;;;6.18;77.96;99855.59;104297;1301;73598;-79
2023/02/24 04:10:29;;;;;;;;;;;;;;;6.16;78.04;99851.66;104417;1296;68398;-79
2023/02/24 04:13:35;;;;;;;;;;;;;;;6.17;78.07;99845.84;104347;1295;72200;-79
2023/02/24 04:16:27;;;;;;;;;;;;;;;6.16;78.04;99843.63;104340;1296;61164;-79
2023/02/24 04:19:17;;;;;;;;;;;;;;;6.15;78.02;99840.21;104363;1301;63171;-79
2023/02/24 04:22:05;;;;;;;;;;;;;;;6.14;78.03;99841.75;105560;1296;74595;-79
2023/02/24 04:24:58;;;;;;;;;;;;;;;6.15;78.13;99835.59;104958;1299;67347;-79
2023/02/24 04:27:46;;;;;;;;;;;;;;;6.14;78.11;99833.02;104363;1297;72974;-79
2023/02/24 04:30:34;;;;;;;;;;;;;;;6.15;78.16;99827.37;104316;1296;61175;-79
2023/02/24 04:33:20;;;;;;;;;;;;;;;6.16;78.13;99825.30;104423;1288;60075;-79
2023/02/24 04:36:07;;;;;;;;;;;;;;;6.16;78.18;99820.70;104893;1287;75703;-79
2023/02/24 04:38:54;;;;;;;;;;;;;;;6.17;78.15;99820.17;105050;1288;67301;-80
2023/02/24 04:41:42;;;;;;;;;;;;;;;6.16;78.23;99814.88;105046;1288;71182;-79
2023/02/24 04:44:28;;;;;;;;;;;;;;;6.15;78.21;99806.84;105076;1292;61064;-79
2023/02/24 04:47:15;;;;;;;;;;;;;;;6.14;78.23;99803.26;104866;1288;61227;-79
2023/02/24 04:50:04;;;;;;;;;;;;;;;6.14;78.31;99800.19;105006;1288;74876;-79
2023/02/24 04:52:52;;;;;;;;;;;;;;;6.15;78.27;99801.20;104961;1288;66788;-79
2023/02/24 04:55:41;;;;;;;;;;;;;;;6.14;78.26;99797.11;104869;1289;72329;-79
2023/02/24 04:58:27;;;;;;;;;;;;;;;6.13;78.39;99796.77;104831;1293;61296;-79
2023/02/24 05:01:13;;;;;;;;;;;;;;;6.14;78.40;99795.05;104966;1287;59652;-80
2023/02/24 05:03:59;;;;;;;;;;;;;;;6.13;78.36;99791.64;105011;1292;73868;-79
2023/02/24 05:06:46;;;;;;;;;;;;;;;6.13;78.45;99787.54;104926;1290;67208;-79
2023/02/24 05:09:32;;;;;;;;;;;;;;;6.12;78.41;99783.61;104950;1288;71940;-79
2023/02/24 05:12:20;;;;;;;;;;;;;;;6.11;78.48;99781.73;105030;1293;61127;-80
2023/02/24 05:15:07;;;;;;;;;;;;;;;6.10;78.43;99782.77;104878;1288;61276;-79
2023/02/24 05:17:53;;;;;;;;;;;;;;;6.09;78.51;99778.84;105072;1288;73931;-79
2023/02/24 05:23:45;;;;;;;;;;;;;;;6.09;78.58;99775.94;105054;1292;71925;-77
2023/02/24 05:26:34;;;;;;;;;;;;;;;6.09;78.54;99775.77;104958;1288;61211;-77
2023/02/24 05:29:20;;;;;;;;;;;;;;;6.09;78.57;99770.64;106079;1291;59837;-74
2023/02/24 05:32:07;;;;;;;;;;;;;;;6.09;78.64;99764.82;106189;1288;74577;-74
2023/02/24 05:34:52;;;;;;;;;;;;;;;6.10;78.60;99763.79;106055;1288;69104;-74
2023/02/24 05:37:40;;;;;;;;;;;;;;;6.11;78.60;99763.09;106192;1288;72465;-73
2023/02/24 05:40:27;;;;;;;;;;;;;;;6.10;78.59;99763.43;106165;1288;59090;-74
2023/02/24 05:43:18;;;;;;;;;;;;;;;6.10;78.58;99760.70;106142;1291;58805;-74
2023/02/24 05:46:05;;;;;;;;;;;;;;;6.10;78.62;99763.96;106187;1288;75468;-74
2023/02/24 05:48:55;;;;;;;;;;;;;;;6.08;78.55;99768.77;106165;1288;68604;-74
2023/02/24 05:51:53;;;;;;;;;;;;;;;6.05;78.40;99767.60;106142;1288;72280;-74
2023/02/24 05:54:43;;;;;;;;;;;;;;;6.03;78.43;99770.54;106148;1288;59156;-74
2023/02/24 05:57:34;;;;;;;;;;;;;;;6.00;78.44;99765.78;106164;1288;59003;-74
2023/02/24 06:00:24;;;;;;;;;;;;;;;5.95;78.50;99766.51;106033;1288;73183;-74
2023/02/24 06:03:16;;;;;;;;;;;;;;;5.91;78.45;99762.45;106133;1288;68383;-74
2023/02/24 06:06:07;;;;;;;;;;;;;;;5.87;78.47;99767.42;106089;1288;72271;-74
2023/02/24 06:08:54;;;;;;;;;;;;;;;5.82;78.56;99769.86;106170;1288;58983;-74
2023/02/24 06:11:41;;;;;;;;;;;;;;;5.77;78.44;99774.87;106127;1288;59932;-74
2023/02/24 06:14:27;;;;;;;;;;;;;;;5.74;78.55;99772.52;105394;1288;73437;-73
2023/02/24 06:17:17;;;;;;;;;;;;;;;5.71;78.50;99772.40;105147;1292;68388;-73
2023/02/24 06:20:14;;;;;;;;;;;;;;;5.65;78.33;99777.92;104932;1289;71255;-73
2023/02/24 06:23:00;;;;;;;;;;;;;;;5.56;78.36;99781.25;105061;1288;61217;-72
2023/02/24 06:25:47;;;;;;;;;;;;;;;5.48;78.20;99786.61;104797;1293;61145;-72
2023/02/24 06:28:33;;;;;;;;;;;;;;;5.35;77.99;99789.30;104857;1288;73510;-72
2023/02/24 06:31:20;;;;;;;;;;;;;;;5.16;77.91;99791.52;104996;1290;67517;-72
2023/02/24 06:34:23;;;;;;;;;;;;;;;5.02;78.01;99796.91;104863;1288;71339;-72
2023/02/24 06:37:11;;;;;;;;;;;;;;;4.90;77.99;99801.42;104954;1294;61281;-72
2023/02/24 06:39:57;;;;;;;;;;;;;;;4.79;78.01;99803.20;104827;1288;62874;-72
2023/02/24 06:42:48;;;;;;;;;;;;;;;4.71;78.09;99808.02;104987;1288;73499;-72
2023/02/24 06:45:34;;;;;;;;;;;;;;;4.61;77.94;99811.35;105000;1288;67251;-72
2023/02/24 06:48:24;;;;;;;;;;;;;;;4.48;77.93;99815.84;104938;1288;71797;-72
2023/02/24 06:51:14;;;;;;;;;;;;;;;4.32;77.79;99813.00;106069;1288;58895;-72
2023/02/24 06:54:01;;;;;;;;;;;;;;;4.20;77.76;99814.56;106035;1288;59436;-72
2023/02/24 06:56:48;;;;;;;;;;;;;;;4.08;77.82;99812.59;106210;1288;73475;-72
2023/02/24 06:59:34;;;;;;;;;;;;;;;3.96;77.82;99812.09;106021;1288;68356;-72
2023/02/24 07:02:21;;;;;;;;;;;;;;;3.90;77.86;99809.38;106011;1288;72220;-72
2023/02/24 07:05:13;;;;;;;;;;;;;;;3.83;77.87;99812.46;106176;1288;59612;-72
2023/02/24 07:07:59;;;;;;;;;;;;;;;3.78;77.82;99815.20;106030;1288;59153;-72
2023/02/24 07:10:50;;;;;;;;;;;;;;;3.74;77.83;99814.52;106011;1288;73577;-72
2023/02/24 07:13:36;;;;;;;;;;;;;;;3.70;77.80;99811.12;106141;1289;68408;-72
2023/02/24 07:16:27;;;;;;;;;;;;;;;3.67;77.87;99811.80;105977;1288;71360;-72
2023/02/24 07:19:14;;;;;;;;;;;;;;;3.69;77.97;99812.48;104906;1288;61191;-72
2023/02/24 07:22:02;;;;;;;;;;;;;;;3.71;78.05;99809.08;104719;1288;60564;-72
2023/02/24 07:24:48;;;;;;;;;;;;;;;3.72;77.96;99809.23;104796;1292;75756;-72
2023/02/24 07:27:35;;;;;;;;;;;;;;;3.71;77.97;99803.79;104955;1292;67728;-72
2023/02/24 07:30:21;;;;;;;;;;;;;;;3.72;77.96;99798.50;104935;1292;71297;-72
2023/02/24 07:33:08;;;;;;;;;;;;;;;3.72;77.99;99795.09;105043;1291;61182;-72
2023/02/24 07:35:55;;;;;;;;;;;;;;;3.72;78.02;99793.90;104829;1288;61039;-72
2023/02/24 07:38:41;;;;;;;;;;;;;;;3.75;78.12;99787.77;104973;1288;76001;-72
2023/02/24 07:41:27;;;;;;;;;;;;;;;3.77;78.08;99788.44;104949;1288;70990;-72
2023/02/24 07:44:16;;;;;;;;;;;;;;;3.77;78.03;99786.73;104982;1288;72053;-72
2023/02/24 07:47:06;;;;;;;;;;;;;;;3.78;78.14;99784.02;104831;1288;61102;-72
2023/02/24 07:49:54;;;;;;;;;;;;;;;3.78;78.17;99779.40;105024;1292;59911;-72
2023/02/24 07:52:40;;;;;;;;;;;;;;;3.77;78.09;99773.27;104887;1289;74160;-72
2023/02/24 07:55:30;;;;;;;;;;;;;;;3.78;78.16;99769.34;104913;1289;68468;-72
2023/02/24 07:58:17;;;;;;;;;;;;;;;3.80;78.19;99770.02;105023;1288;71159;-72
2023/02/24 08:01:07;;;;;;;;;;;;;;;3.83;78.14;99767.97;104848;1289;61059;-72
2023/02/24 08:03:55;;;;;;;;;;;;;;;3.84;78.17;99763.19;104969;1290;61108;-72
2023/02/24 08:06:45;;;;;;;;;;;;;;;3.86;78.23;99754.67;104877;1291;73250;-72
2023/02/24 08:12:30;;;;;;;;;;;;;;;3.90;78.26;99746.13;104814;1288;73128;-72
2023/02/24 08:15:17;;;;;;;;;;;;;;;3.93;78.29;99737.77;104806;1293;61260;-72
2023/02/24 08:18:03;;;;;;;;;;;;;;;3.98;78.38;99733.15;104832;1293;61220;-72
2023/02/24 08:20:52;;;;;;;;;;;;;;;4.03;78.29;99728.52;105003;1288;73253;-72
2023/02/24 08:23:43;;;;;;;;;;;;;;;4.05;78.25;99724.94;104890;1288;68158;-72
2023/02/24 08:26:30;;;;;;;;;;;;;;;4.04;78.25;99720.86;104998;1288;71580;-72
2023/02/24 08:29:19;;;;;;;;;;;;;;;4.03;78.31;99721.02;104783;1293;59662;-72
2023/02/24 08:32:11;;;;;;;;;;;;;;;4.00;78.31;99718.13;105035;1288;61094;-72
2023/02/24 08:35:01;;;;;;;;;;;;;;;4.00;78.37;99717.27;104859;1288;73906;-72
2023/02/24 08:37:49;;;;;;;;;;;;;;;4.04;78.40;99717.95;104927;1290;67329;-71
2023/02/24 08:40:38;;;;;;;;;;;;;;;4.07;78.45;99712.32;104928;1288;75313;-71
2023/02/24 08:46:18;;;;;;;;;;;;;;;4.10;78.36;99708.89;104972;1288;61115;-71
2023/02/24 08:49:09;;;;;;;;;;;;;;;4.09;78.38;99710.09;104847;1292;73886;-71
2023/02/24 08:52:01;;;;;;;;;;;;;;;4.10;78.45;99703.44;105028;1292;67108;-71
2023/02/24 08:54:48;;;;;;;;;;;;;;;4.11;78.51;99700.02;105037;1288;72569;-72
2023/02/24 08:57:35;;;;;;;;;;;;;;;4.11;78.47;99701.72;104997;1289;61190;-72
2023/02/24 09:00:47;;;;;;;;;;;;;;;4.10;78.49;99704.80;104940;1288;61248;-71
2023/02/24 09:03:28;;;;;;;;;;;;;;;4.06;78.28;99699.19;105015;1293;72565;-71
2023/02/24 09:06:16;;;;;;;;;;;;;;;3.99;78.27;99695.30;104875;1292;67832;-71
2023/02/24 09:09:19;;;;;;;;;;;;;;;3.90;78.20;99694.30;104878;1290;75242;-71
2023/02/24 09:12:05;;;;;;;;;;;;;;;3.81;78.10;99689.73;104914;1293;61140;-71
2023/02/24 09:14:56;;;;;;;;;;;;;;;3.75;78.05;99683.45;104966;1289;65169;-71
2023/02/24 09:23:44;;;;;;;;;;;;;;;3.68;78.16;99676.98;104981;1288;72058;-71
2023/02/24 09:26:41;;;;;;;;;;;;;;;3.68;78.25;99675.80;104960;1288;61173;-72
2023/02/24 09:29:33;;;;;;;;;;;;;;;3.75;78.32;99675.27;105013;1288;61528;-72
2023/02/24 09:32:21;;;;;;;;;;;;;;;3.82;78.46;99677.45;104822;1290;73731;-72
2023/02/24 09:35:07;;;;;;;;;;;;;;;3.85;78.33;99671.31;104927;1288;67286;-72
2023/02/24 09:37:55;;;;;;;;;;;;;;;3.88;78.28;99672.32;104980;1292;72230;-72
2023/02/24 09:40:49;;;;;;;;;;;;;;;3.88;78.18;99666.86;106229;1288;58993;-72
2023/02/24 09:43:43;;;;;;;;;;;;;;;3.94;78.30;99664.80;106077;1288;59540;-72
2023/02/24 09:46:32;;;;;;;;;;;;;;;4.02;78.28;99662.71;106058;1292;73462;-72
2023/02/24 09:49:19;;;;;;;;;;;;;;;4.05;78.18;99663.72;106028;1288;67422;-72
2023/02/24 09:52:16;;;;;;;;;;;;;;;4.06;78.13;99659.29;106180;1288;72539;-72
2023/02/24 10:01:20;;;;;;;;;;;;;;;4.11;78.23;99637.25;106094;1288;73968;-72
2023/02/24 10:04:12;;;;;;;;;;;;;;;4.14;78.16;99638.94;106124;1290;68512;-72
2023/02/24 10:07:09;;;;;;;;;;;;;;;4.15;78.17;99636.21;106101;1291;70417;-72
2023/02/24 10:10:18;;;;;;;;;;;;;;;4.14;78.06;99632.64;106167;1292;59388;-72
2023/02/24 10:13:13;;;;;;;;;;;;;;;4.12;78.01;99636.06;106133;1291;61787;-72
2023/02/24 10:16:08;;;;;;;;;;;;;;;4.10;78.00;99633.51;106153;1288;74560;-72
2023/02/24 10:19:23;;;;;;;;;;;;;;;4.11;78.00;99621.73;105931;1292;69242;-72
2023/02/24 10:22:26;;;;;;;;;;;;;;;4.10;77.94;99624.30;105529;1297;71379;-72
2023/02/24 10:25:20;;;;;;;;;;;;;;;4.10;78.12;99619.86;105532;1295;59309;-72
2023/02/24 10:28:34;;;;;;;;;;;;;;;4.14;78.13;99616.27;105485;1296;58720;-72
2023/02/24 10:31:28;;;;;;;;;;;;;;;4.18;78.09;99613.99;105389;1295;73363;-72
2023/02/24 10:34:30;;;;;;;;;;;;;;;4.25;78.14;99605.92;105546;1297;67643;-72
2023/02/24 10:37:21;;;;;;;;;;;;;;;4.36;78.11;99603.46;105465;1295;70967;-72
2023/02/24 10:40:11;;;;;;;;;;;;;;;4.44;78.04;99598.46;105479;1296;59597;-72
2023/02/24 10:43:09;;;;;;;;;;;;;;;4.47;77.79;99588.88;105517;1296;59499;-72
2023/02/24 10:46:05;;;;;;;;;;;;;;;4.48;77.73;99580.85;105529;1297;74448;-72
2023/02/24 10:48:59;;;;;;;;;;;;;;;4.51;77.78;99572.98;105467;1296;67412;-73
2023/02/24 10:51:51;;;;;;;;;;;;;;;4.56;77.72;99566.79;105499;1299;71425;-73
2023/02/24 10:55:04;;;;;;;;;;;;;;;4.58;77.76;99563.02;105393;1296;59177;-73
2023/02/24 10:58:05;;;;;;;;;;;;;;;4.61;77.72;99560.43;105669;1290;60496;-73
2023/02/24 11:00:59;;;;;;;;;;;;;;;4.65;77.65;99555.80;106038;1294;75038;-72
2023/02/24 11:04:00;;;;;;;;;;;;;;;4.68;77.69;99544.32;106012;1293;68300;-72
2023/02/24 11:07:10;;;;;;;;;;;;;;;4.67;77.51;99534.77;105977;1290;71429;-72
2023/02/24 11:10:09;;;;;;;;;;;;;;;4.65;77.49;99530.88;106133;1289;59096;-73
2023/02/24 11:19:05;;;;;;;;;;;;;;;4.68;77.39;99509.15;106089;1290;67473;-73
2023/02/24 11:21:53;;;;;;;;;;;;;;;4.67;77.41;99505.59;106015;1289;72878;-73
2023/02/24 11:24:46;;;;;;;;;;;;;;;4.69;77.49;99500.08;106006;1289;59383;-72
2023/02/24 11:27:32;;;;;;;;;;;;;;;4.72;77.50;99495.27;105968;1289;58974;-72
2023/02/24 11:30:18;;;;;;;;;;;;;;;4.73;77.38;99491.67;106005;1289;73226;-73
2023/02/24 11:33:21;;;;;;;;;;;;;;;4.74;77.30;99484.66;106094;1288;68400;-72
2023/02/24 11:36:10;;;;;;;;;;;;;;;4.73;77.27;99478.88;106043;1289;72752;-72
2023/02/24 11:39:15;;;;;;;;;;;;;;;4.72;77.31;99474.63;106077;1290;59234;-72
2023/02/24 11:42:06;;;;;;;;;;;;;;;4.70;77.30;99472.25;106080;1290;60524;-72
2023/02/24 11:44:52;;;;;;;;;;;;;;;4.71;77.32;99464.90;105993;1288;73369;-72
2023/02/24 11:47:42;;;;;;;;;;;;;;;4.70;77.35;99460.80;106084;1290;69062;-73
2023/02/24 11:50:31;;;;;;;;;;;;;;;4.70;77.25;99457.73;105977;1288;72282;-72
2023/02/24 11:53:29;;;;;;;;;;;;;;;4.72;77.31;99459.41;105866;1293;60182;-73
2023/02/24 11:56:22;;;;;;;;;;;;;;;4.74;77.19;99455.30;106095;1288;59149;-72
2023/02/24 11:59:08;;;;;;;;;;;;;;;4.73;77.19;99454.80;106105;1288;74618;-72
2023/02/24 12:02:09;;;;;;;;;;;;;;;4.68;77.03;99450.43;106063;1289;67262;-72
2023/02/24 12:04:59;;;;;;;;;;;;;;;4.64;77.08;99440.59;106087;1290;73447;-73
2023/02/24 12:07:45;;;;;;;;;;;;;;;4.70;77.23;99438.80;105974;1288;59653;-72
2023/02/24 12:10:34;;;;;;;;;;;;;;;4.76;77.23;99433.09;106109;1291;59923;-72
2023/02/24 12:13:31;;;;;;;;;;;;;;;4.78;77.06;99430.67;106082;1289;73985;-72
2023/02/24 12:16:20;;;;;;;;;;;;;;;4.82;77.15;99428.06;106005;1288;68688;-72
2023/02/24 12:19:18;;;;;;;;;;;;;;;4.83;77.06;99429.24;106101;1288;64321;-72
2023/02/24 12:22:10;;;;;;;;;;;;;;;4.85;77.02;99418.82;105984;1293;59321;-73
2023/02/24 12:24:56;;;;;;;;;;;;;;;4.89;77.10;99416.20;106083;1288;58343;-78
2023/02/24 12:27:57;;;;;;;;;;;;;;;4.90;76.93;99403.55;106096;1289;74551;-76
2023/02/24 12:30:50;;;;;;;;;;;;;;;4.90;76.97;99403.90;106095;1288;66316;-76
2023/02/24 12:33:41;;;;;;;;;;;;;;;4.93;76.96;99394.98;106069;1292;71415;-77
2023/02/24 12:36:30;;;;;;;;;;;;;;;4.94;76.81;99388.30;106097;1292;59191;-72
2023/02/24 12:39:19;;;;;;;;;;;;;;;4.92;76.87;99384.57;106087;1288;59108;-77
2023/02/24 12:42:05;;;;;;;;;;;;;;;4.96;77.01;99379.40;105969;1288;73057;-72
2023/02/24 12:45:02;;;;;;;;;;;;;;;4.94;76.82;99380.79;106168;1290;68812;-72
2023/02/24 12:47:58;;;;;;;;;;;;;;;4.90;76.77;99374.20;105988;1288;72982;-72
2023/02/24 12:51:07;;;;;;;;;;;;;;;4.84;76.72;99370.16;106192;1288;59480;-77
2023/02/24 12:54:02;;;;;;;;;;;;;;;4.83;76.70;99364.02;105551;1295;59281;-78
2023/02/24 12:57:11;;;;;;;;;;;;;;;4.87;76.73;99358.17;105495;1295;74285;-78
2023/02/24 13:00:01;;;;;;;;;;;;;;;4.93;76.78;99350.41;105079;1302;67418;-77
2023/02/24 13:03:04;;;;;;;;;;;;;;;5.00;76.71;99342.98;104932;1305;72243;-77
2023/02/24 13:06:01;;;;;;;;;;;;;;;5.02;76.60;99337.83;105084;1301;59024;-78
2023/02/24 13:08:56;;;;;;;;;;;;;;;5.04;76.51;99329.95;105057;1302;60775;-77
2023/02/24 13:11:46;;;;;;;;;;;;;;;5.06;76.43;99324.80;105108;1301;74981;-79
2023/02/24 13:14:36;;;;;;;;;;;;;;;5.06;76.15;99319.83;105036;1302;68708;-79
2023/02/24 13:17:25;;;;;;;;;;;;;;;5.09;76.28;99312.45;105027;1302;71613;-79
2023/02/24 13:20:13;;;;;;;;;;;;;;;5.10;76.24;99305.09;105115;1302;59877;-79
2023/02/24 13:23:00;;;;;;;;;;;;;;;5.14;76.20;99299.90;105098;1302;59990;-79
2023/02/24 13:25:54;;;;;;;;;;;;;;;5.19;76.19;99296.91;104944;1302;73486;-78
2023/02/24 13:28:40;;;;;;;;;;;;;;;5.25;76.10;99288.09;105006;1302;68585;-77
2023/02/24 13:31:26;;;;;;;;;;;;;;;5.30;76.11;99290.39;105144;1296;71415;-77
2023/02/24 13:34:33;;;;;;;;;;;;;;;5.36;76.16;99287.77;105293;1296;59266;-77
2023/02/24 13:37:31;;;;;;;;;;;;;;;5.35;75.93;99286.73;105883;1288;59913;-78
2023/02/24 13:39:57;;;;;;;;;;;;;;;5.33;75.78;99282.33;106129;1288;72579;-77
2023/02/24 13:42:29;;;;;;;;;;;;;;;5.30;75.67;99277.06;105946;1292;59318;-77
2023/02/24 13:45:00;;;;;;;;;;;;;;;5.32;75.45;99271.06;106154;1288;71843;-77
2023/02/24 13:47:46;;;;;;;;;;;;;;;5.33;75.77;99264.38;105997;1289;59784;-78
2023/02/24 13:50:12;;;;;;;;;;;;;;;5.34;75.71;99261.29;104259;1295;61528;-79
2023/02/24 13:52:58;;;;;;;;;;;;;;;5.36;75.69;99258.19;104203;1296;61726;-78
2023/02/24 13:55:52;;;;;;;;;;;;;;;5.37;75.48;99252.19;103750;1302;67412;-78
2023/02/24 13:58:40;;;;;;;;;;;;;;;5.34;75.43;99245.73;102986;1310;72573;-78
2023/02/24 14:01:14;;;;;;;;;;;;;;;5.34;75.58;99243.86;102164;1316;61384;-78
2023/02/24 14:03:43;;;;;;;;;;;;;;;5.32;75.48;99242.02;102301;1318;61252;-78
2023/02/24 14:06:28;;;;;;;;;;;;;;;5.30;75.50;99244.63;102274;1323;73353;-73
2023/02/24 14:09:18;;;;;;;;;;;;;;;5.28;75.38;99238.48;102401;1317;67979;-74
2023/02/24 14:12:11;;;;;;;;;;;;;;;5.29;75.36;99235.23;102385;1317;73226;-78
2023/02/24 14:14:58;;;;;;;;;;;;;;;5.29;75.20;99230.27;102366;1316;61615;-78
2023/02/24 14:17:54;;;;;;;;;;;;;;;5.28;75.23;99229.78;102319;1317;61367;-77
2023/02/24 14:20:40;;;;;;;;;;;;;;;5.23;75.15;99223.20;102342;1317;74206;-77
2023/02/24 14:23:28;;;;;;;;;;;;;;;5.22;75.16;99215.19;102332;1317;70213;-78
2023/02/24 14:26:17;;;;;;;;;;;;;;;5.22;75.31;99220.98;103603;1317;71558;-78
2023/02/24 14:29:05;;;;;;;;;;;;;;;5.20;75.10;99210.08;103990;1311;167619;-78
2023/02/24 14:31:53;;;;;;;;;;;;;;;5.22;75.19;99208.02;104240;1311;59939;-78
2023/02/24 14:34:39;;;;;;;;;;;;;;;5.25;75.24;99205.91;104969;1296;75721;-78
2023/02/24 14:37:28;;;;;;;;;;;;;;;5.25;75.06;99201.82;105438;1299;67394;-78
2023/02/24 14:40:14;;;;;;;;;;;;;;;5.24;75.04;99197.73;105933;1288;73556;-78
2023/02/24 14:43:02;;;;;;;;;;;;;;;5.24;75.06;99195.00;105921;1289;59407;-79
2023/02/24 14:45:49;;;;;;;;;;;;;;;5.22;74.93;99190.06;105981;1289;58874;-79
2023/02/24 14:48:35;;;;;;;;;;;;;;;5.22;74.79;99191.44;105921;1289;74400;-79
2023/02/24 14:51:24;;;;;;;;;;;;;;;5.19;74.76;99185.02;105923;1291;67365;-78
2023/02/24 14:54:15;;;;;;;;;;;;;;;5.19;74.88;99184.69;105772;1289;71724;-78
2023/02/24 14:57:01;;;;;;;;;;;;;;;5.15;74.82;99176.21;106109;1290;59549;-78
2023/02/24 14:59:50;;;;;;;;;;;;;;;5.13;74.87;99172.65;106016;1289;59970;-78
2023/02/24 15:02:39;;;;;;;;;;;;;;;5.11;74.75;99168.95;105980;1289;73443;-79
2023/02/24 15:05:25;;;;;;;;;;;;;;;5.07;74.67;99163.89;105993;1289;67228;-79
2023/02/24 15:08:34;;;;;;;;;;;;;;;5.05;74.62;99164.44;105941;1290;71395;-79
2023/02/24 15:11:23;;;;;;;;;;;;;;;5.00;74.42;99156.48;106000;1289;59626;-79
2023/02/24 15:14:19;;;;;;;;;;;;;;;4.96;74.47;99150.59;106002;1289;59306;-79
2023/02/24 15:17:15;;;;;;;;;;;;;;;4.93;74.44;99145.16;106126;1289;74292;-79